Amor Vincit — MBAA6 — position and weather

sailwx.info

Track history (hours):
 
Tides and Currents Weather Stations Pressure Air Temp Water Temp Dewpoint Dewpoint Depression Visibility Wind Speed Wind Dir Waves Ship Positions

Amor Vincit

Last reported at 2017-Sep-25 02:12 UTC. Time now 2017-Nov-25 01:49 UTC.
Position N 36°55' W 008°09'.
Warning: this ship's position is months out of date.

Length 17 m.

Type: Sailing vessel. MMSI: 232007978.

Date/timePositionNaut miles runAvg speedWind from/ knotsBaromVisibWave heightAir tempDewpointWater temp
2017-Sep-25 02:12N 36°55' W 008°09'2 7.5
2017-Sep-25 01:59N 36°55' W 008°11'13 7.7
2017-Sep-25 00:20N 36°56' W 008°27'3 7.6
2017-Sep-24 23:59N 36°56' W 008°30'4 7.6
2017-Sep-24 23:30N 36°57' W 008°35'2 4.3
2017-Sep-24 22:56N 36°57' W 008°38'3 6.2
2017-Sep-24 22:24N 36°57' W 008°42'2 5.1
2017-Sep-24 22:00N 36°57' W 008°45'2 4.6
2017-Sep-24 21:30N 36°57' W 008°47'3 5.6
2017-Sep-24 21:00N 36°58' W 008°51'3 5.9
2017-Sep-24 20:30N 36°58' W 008°55'3 5.5
2017-Sep-24 20:00N 36°58' W 008°58'4 7.2
2017-Sep-24 19:30N 37°01' W 009°02'4 7.8
2017-Sep-24 18:59N 37°05' W 009°03'4 7.9
2017-Sep-24 18:30N 37°08' W 009°03'4 8.0
2017-Sep-24 17:58N 37°13' W 009°04'4 7.9
2017-Sep-24 17:28N 37°16' W 009°05'4 7.6
2017-Sep-24 17:00N 37°20' W 009°06'4 7.4
2017-Sep-24 16:30N 37°24' W 009°06'4 7.7
2017-Sep-24 16:00N 37°27' W 009°07'4 7.6
2017-Sep-24 15:30N 37°31' W 009°08'3 6.9
2017-Sep-24 15:00N 37°35' W 009°09'4 7.5
2017-Sep-24 14:29N 37°38' W 009°09'4 7.9
2017-Sep-24 14:00N 37°42' W 009°10'4 8.4
2017-Sep-24 13:29N 37°46' W 009°11'4 8.1
2017-Sep-24 13:00N 37°50' W 009°12'4 8.1
2017-Sep-24 12:29N 37°54' W 009°13'4 8.1
2017-Sep-24 12:00N 37°58' W 009°14'4 8.2
2017-Sep-24 11:30N 38°02' W 009°15'4 8.0
2017-Sep-24 11:00N 38°06' W 009°16'4 8.3
2017-Sep-24 10:30N 38°10' W 009°17'4 8.5
2017-Sep-24 10:00N 38°14' W 009°18'4 8.0
2017-Sep-24 09:30N 38°18' W 009°19'4 7.7
2017-Sep-24 09:00N 38°22' W 009°20'4 7.7
2017-Sep-24 08:30N 38°26' W 009°21'4 7.6
2017-Sep-24 08:00N 38°30' W 009°22'4 7.5
2017-Sep-24 07:30N 38°33' W 009°23'4 7.6
2017-Sep-24 07:00N 38°37' W 009°23'4 7.4
2017-Sep-24 06:29N 38°41' W 009°24'  
Track history (hours):
 
Tides and Currents Weather Stations Pressure Air Temp Water Temp Dewpoint Dewpoint Depression Visibility Wind Speed Wind Dir Waves Ship Positions

Amor Vincit

Last reported at 2017-Sep-25 02:12 UTC. Time now 2017-Nov-25 01:49 UTC.
Position N 36°55' W 008°09'.
Warning: this ship's position is months out of date.

Length 17 m.

Type: Sailing vessel. MMSI: 232007978.

Date/timePositionNaut miles runAvg speedWind from/ knotsBaromVisibWave heightAir tempDewpointWater temp
2017-Sep-25 02:12N 36°55' W 008°09'2 7.5
2017-Sep-25 01:59N 36°55' W 008°11'13 7.7
2017-Sep-25 00:20N 36°56' W 008°27'3 7.6
2017-Sep-24 23:59N 36°56' W 008°30'4 7.6
2017-Sep-24 23:30N 36°57' W 008°35'2 4.3
2017-Sep-24 22:56N 36°57' W 008°38'3 6.2
2017-Sep-24 22:24N 36°57' W 008°42'2 5.1
2017-Sep-24 22:00N 36°57' W 008°45'2 4.6
2017-Sep-24 21:30N 36°57' W 008°47'3 5.6
2017-Sep-24 21:00N 36°58' W 008°51'3 5.9
2017-Sep-24 20:30N 36°58' W 008°55'3 5.5
2017-Sep-24 20:00N 36°58' W 008°58'4 7.2
2017-Sep-24 19:30N 37°01' W 009°02'4 7.8
2017-Sep-24 18:59N 37°05' W 009°03'4 7.9
2017-Sep-24 18:30N 37°08' W 009°03'4 8.0
2017-Sep-24 17:58N 37°13' W 009°04'4 7.9
2017-Sep-24 17:28N 37°16' W 009°05'4 7.6
2017-Sep-24 17:00N 37°20' W 009°06'4 7.4
2017-Sep-24 16:30N 37°24' W 009°06'4 7.7
2017-Sep-24 16:00N 37°27' W 009°07'4 7.6
2017-Sep-24 15:30N 37°31' W 009°08'3 6.9
2017-Sep-24 15:00N 37°35' W 009°09'4 7.5
2017-Sep-24 14:29N 37°38' W 009°09'4 7.9
2017-Sep-24 14:00N 37°42' W 009°10'4 8.4
2017-Sep-24 13:29N 37°46' W 009°11'4 8.1
2017-Sep-24 13:00N 37°50' W 009°12'4 8.1
2017-Sep-24 12:29N 37°54' W 009°13'4 8.1
2017-Sep-24 12:00N 37°58' W 009°14'4 8.2
2017-Sep-24 11:30N 38°02' W 009°15'4 8.0
2017-Sep-24 11:00N 38°06' W 009°16'4 8.3
2017-Sep-24 10:30N 38°10' W 009°17'4 8.5
2017-Sep-24 10:00N 38°14' W 009°18'4 8.0
2017-Sep-24 09:30N 38°18' W 009°19'4 7.7
2017-Sep-24 09:00N 38°22' W 009°20'4 7.7
2017-Sep-24 08:30N 38°26' W 009°21'4 7.6
2017-Sep-24 08:00N 38°30' W 009°22'4 7.5
2017-Sep-24 07:30N 38°33' W 009°23'4 7.6
2017-Sep-24 07:00N 38°37' W 009°23'4 7.4
2017-Sep-24 06:29N 38°41' W 009°24'  

Dump ship's entire track history